Time;durP1;ratioP1;P1;durP2;ratioP2;P2;SDS_P1;SDS_P2;PMS_P1;PMS_P2;Temp;Humidity;BMP_temperature;BMP_pressure;BME280_temperature;BME280_humidity;BME280_pressure;Samples;Min_cycle;Max_cycle;Signal;HPM_P1;HPM_P2
2023/10/27 00:01:03;;;;;;;11.05;3.72;;;;;12.40;96352.00;;;;5034010;28;20660;-64
2023/10/27 00:03:32;;;;;;;17.45;4.13;;;;;12.50;96352.00;;;;5031686;28;20052;-64
2023/10/27 00:06:00;;;;;;;13.93;5.18;;;;;12.60;96346.00;;;;5033437;28;20124;-64
2023/10/27 00:08:29;;;;;;;9.45;3.20;;;;;12.60;96351.00;;;;5033110;28;20187;-66
2023/10/27 00:10:55;;;;;;;13.40;3.72;;;;;12.70;96342.00;;;;5033134;28;20049;-63
2023/10/27 00:13:22;;;;;;;12.43;4.55;;;;;12.60;96349.00;;;;5033111;28;20056;-64
2023/10/27 00:15:49;;;;;;;11.70;3.78;;;;;12.50;96345.00;;;;5032782;28;20133;-63
2023/10/27 00:18:16;;;;;;;11.95;3.80;;;;;12.50;96348.00;;;;5032813;28;20045;-65
2023/10/27 00:20:43;;;;;;;9.48;3.50;;;;;12.50;96339.00;;;;5031731;28;20449;-63
2023/10/27 00:23:09;;;;;;;9.82;3.55;;;;;12.50;96344.00;;;;5033097;28;20052;-64
2023/10/27 00:25:36;;;;;;;10.48;3.45;;;;;12.50;96338.00;;;;5032361;28;20042;-62
2023/10/27 00:28:03;;;;;;;16.02;4.50;;;;;12.60;96342.00;;;;5032936;28;20045;-60
2023/10/27 00:30:30;;;;;;;12.48;3.55;;;;;12.60;96341.00;;;;5031537;28;20046;-65
2023/10/27 00:32:56;;;;;;;9.43;3.78;;;;;12.60;96334.00;;;;5031407;28;20388;-64
2023/10/27 00:35:24;;;;;;;13.60;3.30;;;;;12.50;96331.00;;;;5032352;28;20116;-65
2023/10/27 00:37:50;;;;;;;12.80;3.65;;;;;12.50;96323.00;;;;5032602;28;20478;-65
2023/10/27 00:40:17;;;;;;;8.05;3.67;;;;;12.40;96329.00;;;;5032035;28;20037;-64
2023/10/27 00:42:46;;;;;;;10.93;3.50;;;;;12.40;96323.00;;;;5032725;28;20652;-65
2023/10/27 00:45:13;;;;;;;18.25;3.70;;;;;12.30;96321.00;;;;5032060;28;20087;-65
2023/10/27 00:47:42;;;;;;;12.65;3.35;;;;;12.30;96317.00;;;;5031163;28;20368;-62
2023/10/27 00:50:09;;;;;;;12.68;3.42;;;;;12.30;96320.00;;;;5031219;28;20071;-65
2023/10/27 00:52:39;;;;;;;10.32;3.13;;;;;12.30;96316.00;;;;5032524;28;20391;-65
2023/10/27 00:55:17;;;;;;;12.13;3.17;;;;;12.40;96306.00;;;;5032052;28;20050;-65
2023/10/27 00:57:46;;;;;;;9.98;2.92;;;;;12.50;96313.00;;;;5030999;28;20061;-64
2023/10/27 01:00:15;;;;;;;7.35;3.20;;;;;12.50;96312.00;;;;5032262;28;20478;-64
2023/10/27 01:02:41;;;;;;;7.55;2.90;;;;;12.50;96307.00;;;;5032291;28;20103;-64
2023/10/27 01:05:09;;;;;;;10.18;2.72;;;;;12.50;96304.00;;;;5031752;28;20087;-64
2023/10/27 01:07:36;;;;;;;14.00;3.67;;;;;12.50;96306.00;;;;5032285;28;20041;-65
2023/10/27 01:10:02;;;;;;;15.32;3.28;;;;;12.50;96298.00;;;;5031087;28;20060;-64
2023/10/27 01:12:31;;;;;;;12.38;3.13;;;;;12.50;96307.00;;;;5032179;28;20045;-63
2023/10/27 01:14:58;;;;;;;10.68;3.17;;;;;12.50;96301.00;;;;5031731;28;20053;-63
2023/10/27 01:17:25;;;;;;;13.32;3.25;;;;;12.50;96291.00;;;;5030951;28;20046;-63
2023/10/27 01:19:52;;;;;;;6.70;2.78;;;;;12.60;96294.00;;;;5031681;28;20454;-65
2023/10/27 01:22:19;;;;;;;12.30;4.32;;;;;12.70;96288.00;;;;5032388;28;20494;-64
2023/10/27 01:24:45;;;;;;;15.02;3.53;;;;;12.80;96291.00;;;;5032642;28;20064;-64
2023/10/27 01:27:15;;;;;;;9.25;3.97;;;;;12.80;96301.00;;;;5032705;28;20080;-64
2023/10/27 01:29:41;;;;;;;10.65;3.10;;;;;12.80;96286.00;;;;5031061;28;20045;-62
2023/10/27 01:32:11;;;;;;;7.97;3.17;;;;;12.80;96285.00;;;;5031932;28;20076;-64
2023/10/27 01:34:37;;;;;;;7.53;2.92;;;;;12.80;96288.00;;;;5031367;28;20083;-63
2023/10/27 01:37:04;;;;;;;9.13;3.25;;;;;12.80;96290.00;;;;5030694;28;20045;-60
2023/10/27 01:39:31;;;;;;;8.95;2.97;;;;;12.80;96289.00;;;;5030845;28;20037;-63
2023/10/27 01:41:58;;;;;;;21.05;3.25;;;;;12.80;96286.00;;;;5031809;28;20056;-63
2023/10/27 01:44:27;;;;;;;13.98;2.75;;;;;12.80;96286.00;;;;5030103;28;20479;-61
2023/10/27 01:46:54;;;;;;;9.00;2.70;;;;;12.70;96271.00;;;;5032218;28;20059;-60
2023/10/27 01:49:21;;;;;;;12.13;3.00;;;;;12.70;96279.00;;;;5030803;28;20441;-60
2023/10/27 01:51:48;;;;;;;8.05;2.78;;;;;12.70;96274.00;;;;5033972;28;20048;-62
2023/10/27 01:54:14;;;;;;;13.25;3.55;;;;;12.70;96275.00;;;;5034123;28;20057;-62
2023/10/27 01:56:41;;;;;;;12.55;2.83;;;;;12.70;96269.00;;;;5034595;28;20111;-62
2023/10/27 01:59:08;;;;;;;10.07;2.22;;;;;12.70;96270.00;;;;5034695;28;20140;-61
2023/10/27 02:01:37;;;;;;;11.38;2.35;;;;;12.70;96266.00;;;;5034533;28;20053;-60
2023/10/27 02:04:04;;;;;;;10.35;2.40;;;;;12.70;96263.00;;;;5034106;28;20054;-60
2023/10/27 02:06:31;;;;;;;10.13;2.70;;;;;12.70;96266.00;;;;5018405;28;20061;-60
2023/10/27 02:08:58;;;;;;;9.70;2.47;;;;;12.70;96268.00;;;;5034230;28;20050;-60
2023/10/27 02:11:25;;;;;;;6.00;2.45;;;;;12.80;96262.00;;;;5018113;28;20136;-63
2023/10/27 02:13:51;;;;;;;10.32;2.55;;;;;12.80;96253.00;;;;5033943;28;20507;-62
2023/10/27 02:16:18;;;;;;;9.80;2.30;;;;;12.80;96257.00;;;;5035545;28;20123;-60
2023/10/27 02:18:44;;;;;;;6.95;2.10;;;;;12.80;96249.00;;;;5034288;28;20050;-61
2023/10/27 02:21:15;;;;;;;9.52;2.33;;;;;12.90;96257.00;;;;5034064;28;20072;-61
2023/10/27 02:23:42;;;;;;;6.18;2.20;;;;;12.90;96249.00;;;;5033878;28;20326;-61
2023/10/27 02:26:13;;;;;;;5.00;2.15;;;;;12.90;96253.00;;;;5034273;28;20049;-61
2023/10/27 02:28:45;;;;;;;8.32;1.95;;;;;12.80;96243.00;;;;5033916;28;20144;-62
2023/10/27 02:31:12;;;;;;;13.55;2.67;;;;;12.80;96245.00;;;;5034029;28;20112;-62
2023/10/27 02:33:39;;;;;;;6.13;2.60;;;;;12.80;96240.00;;;;5034578;28;20050;-64
2023/10/27 02:36:10;;;;;;;5.85;1.98;;;;;12.80;96237.00;;;;5033898;28;20103;-63
2023/10/27 02:38:37;;;;;;;7.47;2.15;;;;;12.80;96238.00;;;;5033906;28;20048;-64
2023/10/27 02:41:08;;;;;;;4.47;2.00;;;;;12.80;96237.00;;;;5033889;28;20042;-63
2023/10/27 02:43:38;;;;;;;8.93;2.33;;;;;12.80;96242.00;;;;5034331;28;20414;-61
2023/10/27 02:46:05;;;;;;;5.70;1.70;;;;;12.90;96239.00;;;;5033802;28;20069;-61
2023/10/27 02:48:31;;;;;;;7.50;2.50;;;;;12.90;96239.00;;;;5034818;28;20053;-61
2023/10/27 02:50:58;;;;;;;4.55;2.00;;;;;12.90;96235.00;;;;5034759;28;20042;-61
2023/10/27 02:53:25;;;;;;;6.47;2.25;;;;;13.00;96233.00;;;;5034564;28;20099;-64
2023/10/27 02:55:51;;;;;;;6.45;2.15;;;;;13.00;96228.00;;;;5033358;28;20117;-64
2023/10/27 02:58:18;;;;;;;5.15;2.22;;;;;13.00;96231.00;;;;5034595;28;20053;-63
2023/10/27 03:00:47;;;;;;;4.70;2.42;;;;;13.00;96218.00;;;;5034605;28;20049;-64
2023/10/27 03:03:14;;;;;;;5.13;2.20;;;;;12.90;96216.00;;;;5033983;28;20045;-62
2023/10/27 03:05:42;;;;;;;6.15;2.50;;;;;12.90;96215.00;;;;5032835;28;20049;-65
2023/10/27 03:08:09;;;;;;;4.93;1.90;;;;;12.90;96207.00;;;;5034588;28;20052;-64
2023/10/27 03:10:35;;;;;;;7.80;2.00;;;;;13.00;96203.00;;;;5033240;28;20045;-64
2023/10/27 03:13:08;;;;;;;4.50;1.95;;;;;13.00;96202.00;;;;5034272;28;20125;-63
2023/10/27 03:15:35;;;;;;;3.88;1.90;;;;;13.00;96198.00;;;;5033729;28;20053;-63
2023/10/27 03:18:02;;;;;;;9.82;2.53;;;;;13.00;96206.00;;;;5034028;28;20037;-64
2023/10/27 03:20:29;;;;;;;5.55;1.90;;;;;13.00;96199.00;;;;5032945;28;20136;-64
2023/10/27 03:22:55;;;;;;;11.77;2.47;;;;;13.00;96202.00;;;;5034076;28;20038;-64
2023/10/27 03:25:22;;;;;;;9.32;2.50;;;;;13.00;96207.00;;;;5033560;28;20037;-64
2023/10/27 03:27:49;;;;;;;6.80;2.28;;;;;13.00;96207.00;;;;5034512;28;20038;-62
2023/10/27 03:30:16;;;;;;;7.72;2.20;;;;;13.00;96208.00;;;;5032717;28;20038;-64
2023/10/27 03:32:43;;;;;;;7.40;2.28;;;;;13.00;96209.00;;;;5033916;28;20061;-63
2023/10/27 03:35:09;;;;;;;6.20;2.05;;;;;13.00;96218.00;;;;5033161;28;20069;-63
2023/10/27 03:37:36;;;;;;;7.20;2.17;;;;;12.90;96219.00;;;;5033684;28;20414;-64
2023/10/27 03:40:04;;;;;;;5.43;2.05;;;;;12.90;96212.00;;;;5033730;28;20499;-64
2023/10/27 03:42:31;;;;;;;5.95;2.15;;;;;12.90;96211.00;;;;5032277;28;20049;-64
2023/10/27 03:45:00;;;;;;;4.53;2.28;;;;;13.00;96214.00;;;;5015577;28;20526;-64
2023/10/27 03:47:26;;;;;;;6.32;2.47;;;;;13.00;96211.00;;;;5033392;28;20042;-64
2023/10/27 03:49:53;;;;;;;8.05;3.55;;;;;13.00;96217.00;;;;5033366;28;20053;-64
2023/10/27 03:52:19;;;;;;;9.48;5.38;;;;;13.00;96204.00;;;;5032283;28;20057;-63
2023/10/27 03:54:46;;;;;;;14.57;8.07;;;;;12.90;96209.00;;;;5031401;28;20049;-64
2023/10/27 03:57:12;;;;;;;12.48;6.60;;;;;12.80;96194.00;;;;5033319;28;20045;-64
2023/10/27 03:59:39;;;;;;;7.05;3.22;;;;;12.80;96208.00;;;;5033129;28;20120;-64
2023/10/27 04:02:06;;;;;;;6.57;2.63;;;;;12.90;96194.00;;;;5033215;28;20056;-63
2023/10/27 04:04:33;;;;;;;5.25;2.35;;;;;13.00;96200.00;;;;5032552;28;20048;-64
2023/10/27 04:07:01;;;;;;;9.38;2.42;;;;;12.90;96193.00;;;;5033109;28;20127;-64
2023/10/27 04:09:27;;;;;;;7.13;2.88;;;;;12.90;96194.00;;;;5031667;28;20103;-64
2023/10/27 04:11:54;;;;;;;3.15;1.77;;;;;12.90;96190.00;;;;5033005;28;20041;-63
2023/10/27 04:14:21;;;;;;;4.50;1.98;;;;;12.90;96188.00;;;;5032073;28;20452;-64
2023/10/27 04:16:47;;;;;;;6.50;2.13;;;;;12.90;96192.00;;;;5033102;28;20046;-64
2023/10/27 04:19:14;;;;;;;3.95;1.75;;;;;13.00;96197.00;;;;5031719;28;20049;-64
2023/10/27 04:21:42;;;;;;;16.67;3.83;;;;;13.00;96195.00;;;;5033117;28;20045;-64
2023/10/27 04:24:09;;;;;;;5.28;2.00;;;;;12.80;96193.00;;;;5031164;28;20042;-63
2023/10/27 04:26:36;;;;;;;4.88;1.92;;;;;12.90;96196.00;;;;5033208;28;20413;-64
2023/10/27 04:29:02;;;;;;;2.83;1.70;;;;;12.90;96197.00;;;;5032806;28;20494;-64
2023/10/27 04:31:29;;;;;;;4.43;1.75;;;;;13.00;96192.00;;;;5031536;28;20064;-63
2023/10/27 04:33:56;;;;;;;5.82;2.40;;;;;13.00;96194.00;;;;5032101;28;20041;-64
2023/10/27 04:36:22;;;;;;;6.93;2.33;;;;;12.90;96187.00;;;;5032725;28;20457;-64
2023/10/27 04:38:49;;;;;;;5.75;1.90;;;;;12.80;96185.00;;;;5032830;28;20410;-63
2023/10/27 04:41:15;;;;;;;5.25;3.08;;;;;12.70;96188.00;;;;5032636;28;20406;-62
2023/10/27 04:43:42;;;;;;;1.95;1.60;;;;;12.70;96188.00;;;;5031976;28;20054;-61
2023/10/27 04:46:09;;;;;;;7.22;3.00;;;;;12.70;96192.00;;;;5032746;28;20049;-61
2023/10/27 04:48:36;;;;;;;4.43;2.00;;;;;12.70;96185.00;;;;5031313;28;20101;-61
2023/10/27 04:51:03;;;;;;;3.63;1.80;;;;;12.70;96183.00;;;;5032633;28;20410;-61
2023/10/27 04:53:31;;;;;;;2.97;1.52;;;;;12.70;96179.00;;;;5030959;28;20099;-60
2023/10/27 04:55:57;;;;;;;5.30;2.00;;;;;12.60;96184.00;;;;5033007;28;20045;-62
2023/10/27 04:58:24;;;;;;;6.10;2.50;;;;;12.60;96170.00;;;;5033719;28;20049;-62
2023/10/27 05:00:51;;;;;;;3.70;2.13;;;;;12.60;96157.00;;;;5034773;28;20495;-64
2023/10/27 05:03:18;;;;;;;3.83;1.85;;;;;12.50;96159.00;;;;5032963;28;20415;-63
2023/10/27 05:05:44;;;;;;;6.30;2.72;;;;;12.60;96159.00;;;;5031715;28;20041;-64
2023/10/27 05:08:11;;;;;;;6.07;3.50;;;;;12.70;96153.00;;;;5032386;28;20426;-64
2023/10/27 05:10:40;;;;;;;19.40;13.02;;;;;12.70;96154.00;;;;5032224;28;20041;-63
2023/10/27 05:13:07;;;;;;;9.95;4.60;;;;;12.60;96151.00;;;;5032208;28;20498;-64
2023/10/27 05:15:34;;;;;;;9.93;5.80;;;;;12.60;96152.00;;;;5031941;28;20514;-63
2023/10/27 05:18:05;;;;;;;5.93;1.80;;;;;12.50;96153.00;;;;5032686;28;20045;-64
2023/10/27 05:20:37;;;;;;;6.55;3.47;;;;;12.50;96156.00;;;;5035990;28;20057;-64
2023/10/27 05:23:03;;;;;;;6.07;2.45;;;;;12.40;96148.00;;;;5037678;28;20042;-64
2023/10/27 05:25:30;;;;;;;3.60;1.88;;;;;12.40;96149.00;;;;5038111;28;20573;-64
2023/10/27 05:27:57;;;;;;;6.60;4.88;;;;;12.30;96142.00;;;;5037757;28;20046;-64
2023/10/27 05:30:23;;;;;;;5.28;2.10;;;;;12.20;96143.00;;;;5038216;28;20144;-64
2023/10/27 05:32:50;;;;;;;6.90;5.20;;;;;12.20;96140.00;;;;5040498;28;20056;-63
2023/10/27 05:35:16;;;;;;;4.95;1.95;;;;;12.20;96142.00;;;;5037011;28;20099;-64
2023/10/27 05:37:43;;;;;;;3.55;1.48;;;;;12.30;96136.00;;;;5039897;28;20037;-64
2023/10/27 05:40:14;;;;;;;3.20;1.52;;;;;12.30;96135.00;;;;5040672;28;20045;-62
2023/10/27 05:42:42;;;;;;;4.13;1.60;;;;;12.40;96133.00;;;;5036906;28;20049;-63
2023/10/27 05:45:11;;;;;;;2.92;1.13;;;;;12.40;96129.00;;;;5032923;28;20512;-60
2023/10/27 05:47:38;;;;;;;1.23;0.77;;;;;12.30;96133.00;;;;5031922;28;20103;-61
2023/10/27 05:50:09;;;;;;;1.95;0.73;;;;;12.40;96132.00;;;;5030745;28;20046;-62
2023/10/27 05:52:36;;;;;;;3.13;0.90;;;;;12.40;96141.00;;;;5030566;28;20037;-59
2023/10/27 05:55:05;;;;;;;0.80;0.60;;;;;12.40;96139.00;;;;5031183;28;20139;-60
2023/10/27 05:57:41;;;;;;;1.13;0.63;;;;;12.40;96132.00;;;;5031122;28;20422;-61
2023/10/27 06:00:22;;;;;;;1.35;0.70;;;;;12.40;96144.00;;;;5027624;28;20053;-61
2023/10/27 06:02:52;;;;;;;1.17;0.80;;;;;12.30;96144.00;;;;5031807;28;20499;-60
2023/10/27 06:05:20;;;;;;;0.60;0.60;;;;;12.30;96135.00;;;;5031219;28;20060;-60
2023/10/27 06:07:47;;;;;;;2.72;0.98;;;;;12.30;96139.00;;;;5031538;28;20051;-60
2023/10/27 06:10:13;;;;;;;0.70;0.68;;;;;12.30;96144.00;;;;5030188;28;20609;-64
2023/10/27 06:12:40;;;;;;;0.60;0.50;;;;;12.20;96146.00;;;;5030395;28;20426;-60
2023/10/27 06:15:07;;;;;;;0.73;0.70;;;;;12.10;96143.00;;;;5031092;28;20045;-59
2023/10/27 06:17:34;;;;;;;0.55;0.55;;;;;12.10;96147.00;;;;5031590;28;20052;-63
2023/10/27 06:20:02;;;;;;;0.80;0.50;;;;;12.10;96147.00;;;;5031744;28;20454;-60
2023/10/27 06:22:44;;;;;;;1.95;0.57;;;;;12.10;96152.00;;;;5031956;28;20052;-61
2023/10/27 06:25:11;;;;;;;0.77;0.77;;;;;12.10;96156.00;;;;5031030;28;20129;-60
2023/10/27 06:27:38;;;;;;;1.75;0.50;;;;;12.00;96155.00;;;;5032054;28;20045;-60
2023/10/27 06:30:06;;;;;;;0.35;0.35;;;;;12.00;96156.00;;;;5031414;28;20565;-61
2023/10/27 06:32:32;;;;;;;0.70;0.50;;;;;12.00;96153.00;;;;5030175;28;20128;-62
2023/10/27 06:34:59;;;;;;;0.40;0.40;;;;;12.00;96157.00;;;;5030881;28;20045;-61
2023/10/27 06:37:26;;;;;;;0.55;0.50;;;;;12.00;96169.00;;;;5032332;28;20423;-63
2023/10/27 06:39:58;;;;;;;1.10;0.50;;;;;12.00;96157.00;;;;5035153;28;20045;-63
2023/10/27 06:42:25;;;;;;;3.20;1.08;;;;;12.00;96173.00;;;;5035166;28;20048;-63
2023/10/27 06:44:52;;;;;;;1.67;0.65;;;;;12.00;96184.00;;;;5033028;28;20517;-64
2023/10/27 06:47:18;;;;;;;7.32;0.60;;;;;11.90;96176.00;;;;5033709;28;20044;-64
2023/10/27 06:49:48;;;;;;;1.55;0.50;;;;;12.00;96193.00;;;;5034838;28;20505;-64
2023/10/27 06:52:15;;;;;;;0.98;0.55;;;;;12.00;96197.00;;;;5033448;28;20045;-63
2023/10/27 06:54:42;;;;;;;1.20;0.60;;;;;12.00;96192.00;;;;5032821;28;20050;-63
2023/10/27 06:57:10;;;;;;;0.50;0.50;;;;;12.00;96207.00;;;;5034843;28;20079;-63
2023/10/27 06:59:37;;;;;;;0.50;0.50;;;;;12.00;96214.00;;;;5034765;28;20065;-63
2023/10/27 07:02:03;;;;;;;3.15;0.60;;;;;12.00;96219.00;;;;5034514;28;20045;-63
2023/10/27 07:04:30;;;;;;;0.73;0.50;;;;;12.00;96223.00;;;;5033777;28;20124;-63
2023/10/27 07:06:57;;;;;;;1.05;0.60;;;;;12.00;96235.00;;;;5034371;28;20391;-63
2023/10/27 07:09:23;;;;;;;1.83;0.55;;;;;12.00;96244.00;;;;5033330;28;20051;-63
2023/10/27 07:11:50;;;;;;;1.67;0.82;;;;;12.10;96247.00;;;;5034229;28;20045;-63
2023/10/27 07:14:16;;;;;;;0.50;0.50;;;;;12.10;96261.00;;;;5033695;28;20529;-63
2023/10/27 07:16:43;;;;;;;0.50;0.50;;;;;12.10;96264.00;;;;5034448;28;20046;-64
2023/10/27 07:19:11;;;;;;;1.15;0.60;;;;;12.10;96279.00;;;;5032676;28;20550;-64
2023/10/27 07:21:38;;;;;;;2.72;0.60;;;;;12.10;96277.00;;;;5034221;28;20041;-64
2023/10/27 07:24:05;;;;;;;0.88;0.88;;;;;12.10;96281.00;;;;5033457;28;20079;-63
2023/10/27 07:26:31;;;;;;;2.47;0.70;;;;;12.20;96290.00;;;;5034068;28;20047;-63
2023/10/27 07:28:58;;;;;;;0.45;0.45;;;;;12.30;96302.00;;;;5033987;28;20097;-62
2023/10/27 07:31:24;;;;;;;1.77;0.70;;;;;12.30;96294.00;;;;5032667;28;20505;-63
2023/10/27 07:33:51;;;;;;;1.17;0.60;;;;;12.40;96289.00;;;;5016028;28;20561;-64
2023/10/27 07:36:18;;;;;;;0.80;0.60;;;;;12.50;96305.00;;;;5034071;28;20545;-63
2023/10/27 07:38:45;;;;;;;1.48;0.43;;;;;12.50;96300.00;;;;5032684;28;20041;-64
2023/10/27 07:41:11;;;;;;;3.60;1.08;;;;;12.40;96320.00;;;;5033883;28;20048;-64
2023/10/27 07:43:38;;;;;;;3.08;0.82;;;;;12.40;96314.00;;;;5033205;28;20449;-65
2023/10/27 07:46:05;;;;;;;1.40;0.73;;;;;12.40;96321.00;;;;5032520;28;20052;-64
2023/10/27 07:48:32;;;;;;;1.25;0.60;;;;;12.40;96341.00;;;;5033666;28;20068;-64
2023/10/27 07:50:59;;;;;;;3.03;0.80;;;;;12.50;96342.00;;;;5032152;28;20053;-63
2023/10/27 07:53:29;;;;;;;1.30;0.75;;;;;12.50;96361.00;;;;5032142;28;20057;-64
2023/10/27 07:55:56;;;;;;;0.82;0.60;;;;;12.50;96359.00;;;;5032407;28;20136;-64
2023/10/27 07:58:24;;;;;;;1.10;1.00;;;;;12.40;96370.00;;;;5033588;28;20049;-64
2023/10/27 08:00:51;;;;;;;1.02;0.63;;;;;12.40;96368.00;;;;5032137;28;20049;-64
2023/10/27 08:03:21;;;;;;;1.38;0.93;;;;;12.30;96376.00;;;;5033466;28;20053;-64
2023/10/27 08:05:49;;;;;;;0.70;0.70;;;;;12.40;96368.00;;;;5032889;28;20041;-64
2023/10/27 08:08:16;;;;;;;0.98;0.70;;;;;12.40;96368.00;;;;5032109;28;20045;-60
2023/10/27 08:10:46;;;;;;;1.05;0.80;;;;;12.40;96390.00;;;;5033055;28;20052;-60
2023/10/27 08:13:16;;;;;;;0.80;0.80;;;;;12.40;96390.00;;;;5033259;28;20477;-60
2023/10/27 08:15:44;;;;;;;1.13;0.88;;;;;12.50;96393.00;;;;5031372;28;20049;-61
2023/10/27 08:18:12;;;;;;;0.88;0.88;;;;;12.50;96392.00;;;;5033115;28;20100;-61
2023/10/27 08:20:40;;;;;;;1.95;1.13;;;;;12.70;96394.00;;;;5033211;28;20104;-61
2023/10/27 08:23:06;;;;;;;2.75;1.10;;;;;12.70;96400.00;;;;5033149;28;20045;-61
2023/10/27 08:25:33;;;;;;;1.02;0.70;;;;;12.80;96395.00;;;;5032853;28;20045;-60
2023/10/27 08:28:03;;;;;;;1.23;0.73;;;;;12.80;96408.00;;;;5032894;28;20041;-62
2023/10/27 08:30:29;;;;;;;3.28;0.85;;;;;12.80;96410.00;;;;5031853;28;20499;-63
2023/10/27 08:32:57;;;;;;;1.52;0.85;;;;;12.70;96418.00;;;;5031616;28;20065;-61
2023/10/27 08:35:23;;;;;;;7.28;0.80;;;;;12.70;96416.00;;;;5032214;28;20049;-61
2023/10/27 08:37:50;;;;;;;2.70;0.98;;;;;12.70;96414.00;;;;5032871;28;20495;-63
2023/10/27 08:40:17;;;;;;;1.30;0.70;;;;;12.70;96421.00;;;;5032583;28;20111;-63
2023/10/27 08:42:45;;;;;;;1.25;0.90;;;;;12.70;96424.00;;;;5032740;28;20478;-60
2023/10/27 08:45:12;;;;;;;0.80;0.80;;;;;12.70;96428.00;;;;5032135;28;20072;-63
2023/10/27 08:47:39;;;;;;;2.70;1.20;;;;;12.70;96444.00;;;;5032553;28;20069;-61
2023/10/27 08:50:06;;;;;;;2.53;0.90;;;;;12.70;96445.00;;;;5032539;28;20583;-59
2023/10/27 08:52:33;;;;;;;1.73;1.30;;;;;12.70;96441.00;;;;5031376;28;20046;-63
2023/10/27 08:55:08;;;;;;;2.08;0.85;;;;;12.90;96450.00;;;;5030567;28;20045;-65
2023/10/27 08:57:34;;;;;;;2.00;1.10;;;;;12.90;96441.00;;;;5031252;28;20049;-64
2023/10/27 09:00:03;;;;;;;1.70;1.10;;;;;13.00;96457.00;;;;5030786;28;20406;-64
2023/10/27 09:02:30;;;;;;;2.28;1.17;;;;;13.10;96449.00;;;;5031296;28;20116;-63
2023/10/27 09:05:03;;;;;;;1.80;1.10;;;;;13.20;96451.00;;;;5031840;28;20502;-64
2023/10/27 09:07:32;;;;;;;3.70;1.20;;;;;13.30;96451.00;;;;5031162;28;20411;-64
2023/10/27 09:10:00;;;;;;;2.70;1.10;;;;;13.40;96455.00;;;;5032380;28;20128;-63
2023/10/27 09:12:30;;;;;;;2.08;1.20;;;;;13.40;96451.00;;;;5032329;28;20044;-64
2023/10/27 09:15:04;;;;;;;4.75;1.23;;;;;13.50;96454.00;;;;5031940;28;20057;-62
2023/10/27 09:17:49;;;;;;;3.83;1.58;;;;;13.60;96461.00;;;;5032235;28;20049;-62
2023/10/27 09:20:18;;;;;;;1.80;1.00;;;;;13.60;96454.00;;;;5032545;28;20124;-63
2023/10/27 09:23:04;;;;;;;3.85;1.60;;;;;13.70;96457.00;;;;5032880;28;20047;-64
2023/10/27 09:25:34;;;;;;;4.78;1.35;;;;;13.70;96453.00;;;;5032964;28;20115;-64
2023/10/27 09:28:05;;;;;;;4.43;2.05;;;;;13.80;96456.00;;;;5040539;28;20053;-62
2023/10/27 09:30:34;;;;;;;3.40;1.23;;;;;13.90;96463.00;;;;5032464;28;20049;-63
2023/10/27 09:33:27;;;;;;;6.13;1.80;;;;;13.80;96458.00;;;;5031131;28;20048;-63
2023/10/27 09:35:54;;;;;;;4.32;1.77;;;;;13.80;96461.00;;;;5030937;28;20565;-63
2023/10/27 09:38:22;;;;;;;8.05;1.90;;;;;14.10;96457.00;;;;5032351;28;20042;-64
2023/10/27 09:40:49;;;;;;;5.38;1.65;;;;;14.20;96469.00;;;;5031204;28;20045;-64
2023/10/27 09:43:20;;;;;;;4.88;1.48;;;;;14.20;96467.00;;;;5032699;28;20518;-64
2023/10/27 09:45:55;;;;;;;2.63;1.35;;;;;14.30;96475.00;;;;5032723;28;20129;-64
2023/10/27 09:48:27;;;;;;;5.07;1.05;;;;;14.30;96470.00;;;;5032902;28;20049;-63
2023/10/27 09:51:12;;;;;;;3.53;1.63;;;;;14.40;96454.00;;;;5033403;28;20498;-64
2023/10/27 09:53:41;;;;;;;5.68;1.67;;;;;14.60;96472.00;;;;5047718;28;20034;-64
2023/10/27 09:56:08;;;;;;;4.70;1.55;;;;;14.60;96471.00;;;;5052132;28;20046;-63
2023/10/27 09:58:35;;;;;;;4.95;1.83;;;;;14.60;96475.00;;;;5052228;28;20037;-63
2023/10/27 10:01:04;;;;;;;8.23;1.42;;;;;14.60;96485.00;;;;5052312;28;20073;-63
2023/10/27 10:03:32;;;;;;;4.05;1.48;;;;;14.60;96487.00;;;;5051151;28;20052;-60
2023/10/27 10:06:14;;;;;;;2.67;1.25;;;;;14.50;96491.00;;;;5052558;28;20062;-62
2023/10/27 10:08:41;;;;;;;5.18;1.45;;;;;14.50;96502.00;;;;5051064;28;20065;-63
2023/10/27 10:11:16;;;;;;;4.47;1.65;;;;;14.60;96498.00;;;;5050768;28;20061;-63
2023/10/27 10:13:44;;;;;;;3.38;1.50;;;;;14.90;96499.00;;;;5055751;28;20076;-63
2023/10/27 10:16:12;;;;;;;3.30;1.25;;;;;15.00;96510.00;;;;5055473;28;20053;-62
2023/10/27 10:18:48;;;;;;;3.63;2.00;;;;;15.10;96509.00;;;;5056156;28;20050;-63
2023/10/27 10:21:32;;;;;;;5.03;1.42;;;;;15.20;96514.00;;;;5056663;28;20069;-63
2023/10/27 10:24:01;;;;;;;3.97;1.33;;;;;15.30;96517.00;;;;5051030;28;20065;-62
2023/10/27 10:27:04;;;;;;;10.73;1.83;;;;;15.30;96513.00;;;;5054211;28;20061;-63
2023/10/27 10:29:32;;;;;;;4.32;1.58;;;;;15.30;96509.00;;;;5056526;28;20044;-63
2023/10/27 10:32:47;;;;;;;6.25;1.40;;;;;15.50;96508.00;;;;5055866;28;20101;-63
2023/10/27 10:35:26;;;;;;;5.72;1.50;;;;;15.50;96506.00;;;;5054981;28;20069;-62
2023/10/27 10:37:53;;;;;;;7.57;2.00;;;;;15.60;96506.00;;;;5056837;28;20076;-63
2023/10/27 10:40:26;;;;;;;9.80;2.50;;;;;15.70;96510.00;;;;5059290;28;20025;-61
2023/10/27 10:43:30;;;;;;;8.48;1.80;;;;;16.00;96493.00;;;;5059001;28;20049;-62
2023/10/27 10:46:01;;;;;;;6.70;1.42;;;;;16.10;96503.00;;;;5055936;28;20117;-61
2023/10/27 10:48:33;;;;;;;6.20;1.65;;;;;16.10;96521.00;;;;5055987;28;20105;-62
2023/10/27 10:51:11;;;;;;;4.70;1.80;;;;;15.90;96515.00;;;;5038063;28;20053;-63
2023/10/27 10:53:38;;;;;;;8.93;2.00;;;;;15.70;96517.00;;;;5051390;28;20033;-62
2023/10/27 10:56:05;;;;;;;7.63;1.67;;;;;15.50;96514.00;;;;5053150;28;20045;-63
2023/10/27 10:58:34;;;;;;;8.68;1.88;;;;;15.40;96507.00;;;;5046741;28;20486;-64
2023/10/27 11:01:01;;;;;;;6.15;1.63;;;;;15.30;96521.00;;;;5034805;28;20136;-63
2023/10/27 11:03:31;;;;;;;5.57;2.00;;;;;15.20;96512.00;;;;5034338;28;20453;-64
2023/10/27 11:05:59;;;;;;;5.82;1.85;;;;;15.20;96519.00;;;;5034658;28;20486;-64
2023/10/27 11:08:29;;;;;;;8.02;1.92;;;;;15.10;96526.00;;;;5034498;28;20049;-63
2023/10/27 11:11:06;;;;;;;8.02;2.03;;;;;14.90;96524.00;;;;5034590;28;20061;-64
2023/10/27 11:13:41;;;;;;;3.58;1.35;;;;;14.70;96534.00;;;;5034176;28;20402;-61
2023/10/27 11:16:15;;;;;;;6.75;1.65;;;;;14.50;96537.00;;;;5034851;28;20076;-58
2023/10/27 11:18:47;;;;;;;6.13;1.98;;;;;14.30;96537.00;;;;5034430;28;20042;-59
2023/10/27 11:21:16;;;;;;;9.60;2.45;;;;;14.20;96526.00;;;;5034484;28;20502;-60
2023/10/27 11:23:43;;;;;;;6.85;1.70;;;;;14.10;96529.00;;;;5032021;28;20048;-62
2023/10/27 11:26:11;;;;;;;4.47;1.42;;;;;14.00;96528.00;;;;5034171;28;20041;-60
2023/10/27 11:28:39;;;;;;;5.60;2.03;;;;;14.10;96523.00;;;;5034043;28;20050;-61
2023/10/27 11:31:23;;;;;;;5.50;1.50;;;;;14.10;96522.00;;;;5032884;28;20055;-60
2023/10/27 11:34:00;;;;;;;5.45;1.58;;;;;14.20;96520.00;;;;5033546;28;20055;-61
2023/10/27 11:36:28;;;;;;;5.82;2.17;;;;;14.40;96514.00;;;;5034042;28;20494;-60
2023/10/27 11:38:55;;;;;;;3.70;1.35;;;;;14.90;96523.00;;;;5033958;28;20432;-60
2023/10/27 11:41:22;;;;;;;6.13;1.25;;;;;15.10;96526.00;;;;5033978;28;20124;-61
2023/10/27 11:43:48;;;;;;;3.42;1.27;;;;;15.20;96532.00;;;;5033466;28;20116;-60
2023/10/27 11:46:17;;;;;;;2.30;1.27;;;;;15.20;96533.00;;;;5033746;28;20128;-59
2023/10/27 11:48:45;;;;;;;3.17;1.10;;;;;15.20;96530.00;;;;5033810;28;20052;-61
2023/10/27 11:51:12;;;;;;;5.65;1.10;;;;;15.20;96530.00;;;;5033759;28;20511;-64
2023/10/27 11:53:44;;;;;;;4.45;1.40;;;;;15.10;96539.00;;;;5032982;28;20041;-60
2023/10/27 11:56:11;;;;;;;2.65;1.25;;;;;15.00;96536.00;;;;5033644;28;20392;-60
2023/10/27 11:58:39;;;;;;;3.35;1.13;;;;;14.90;96535.00;;;;5032885;28;20052;-60
2023/10/27 12:01:06;;;;;;;2.90;0.80;;;;;14.90;96538.00;;;;5033580;28;20049;-60
2023/10/27 12:03:33;;;;;;;2.92;1.25;;;;;14.80;96539.00;;;;5032956;28;20044;-60
2023/10/27 12:06:00;;;;;;;4.85;1.10;;;;;14.70;96535.00;;;;5033821;28;20490;-59
2023/10/27 12:08:26;;;;;;;1.65;1.20;;;;;14.60;96539.00;;;;5033203;28;20502;-62
2023/10/27 12:10:53;;;;;;;2.55;1.30;;;;;14.50;96544.00;;;;5032123;28;20065;-61
2023/10/27 12:13:23;;;;;;;3.75;1.58;;;;;14.50;96541.00;;;;5033315;28;20042;-61
2023/10/27 12:15:49;;;;;;;4.45;1.88;;;;;14.50;96539.00;;;;5033384;28;20095;-61
2023/10/27 12:18:19;;;;;;;5.95;2.70;;;;;14.50;96536.00;;;;5033927;28;20437;-61
2023/10/27 12:20:46;;;;;;;3.42;1.85;;;;;14.60;96539.00;;;;5035295;28;20499;-60
2023/10/27 12:23:13;;;;;;;5.65;1.83;;;;;14.70;96537.00;;;;5035987;28;20064;-62